sensor_id;sensor_type;location;lat;lon;timestamp;pressure;altitude;pressure_sealevel;temperature;humidity
67457;BME280;54319;52.038;4.640;2023-03-13T00:00:23;100267.88;;;8.66;97.89
67457;BME280;54319;52.038;4.640;2023-03-13T00:02:50;100265.38;;;8.64;98.50
67457;BME280;54319;52.038;4.640;2023-03-13T00:05:17;100255.75;;;8.68;98.67
67457;BME280;54319;52.038;4.640;2023-03-13T00:07:43;100192.47;;;8.28;98.96
67457;BME280;54319;52.038;4.640;2023-03-13T00:10:11;100241.09;;;8.63;99.38
67457;BME280;54319;52.038;4.640;2023-03-13T00:12:38;100230.66;;;8.66;99.81
67457;BME280;54319;52.038;4.640;2023-03-13T00:15:05;100216.19;;;8.66;99.95
67457;BME280;54319;52.038;4.640;2023-03-13T00:17:32;100212.66;;;8.65;99.95
67457;BME280;54319;52.038;4.640;2023-03-13T00:19:59;100207.47;;;8.57;100.00
67457;BME280;54319;52.038;4.640;2023-03-13T00:22:25;100193.66;;;8.59;100.00
67457;BME280;54319;52.038;4.640;2023-03-13T00:24:52;100191.72;;;8.66;100.00
67457;BME280;54319;52.038;4.640;2023-03-13T00:27:21;100176.66;;;8.70;100.00
67457;BME280;54319;52.038;4.640;2023-03-13T00:29:48;100175.84;;;8.69;100.00
67457;BME280;54319;52.038;4.640;2023-03-13T00:32:15;100165.38;;;8.73;100.00
67457;BME280;54319;52.038;4.640;2023-03-13T00:34:41;100163.88;;;8.77;100.00
67457;BME280;54319;52.038;4.640;2023-03-13T00:37:08;100153.00;;;8.77;100.00
67457;BME280;54319;52.038;4.640;2023-03-13T00:39:34;100146.94;;;8.75;100.00
67457;BME280;54319;52.038;4.640;2023-03-13T00:42:01;100145.66;;;8.78;100.00
67457;BME280;54319;52.038;4.640;2023-03-13T00:44:30;100137.28;;;8.79;100.00
67457;BME280;54319;52.038;4.640;2023-03-13T00:46:57;100133.91;;;8.84;100.00
67457;BME280;54319;52.038;4.640;2023-03-13T00:49:24;100122.81;;;8.86;100.00
67457;BME280;54319;52.038;4.640;2023-03-13T00:51:50;100118.81;;;8.88;100.00
67457;BME280;54319;52.038;4.640;2023-03-13T00:54:17;100112.13;;;8.91;100.00
67457;BME280;54319;52.038;4.640;2023-03-13T00:56:44;100109.56;;;8.96;100.00
67457;BME280;54319;52.038;4.640;2023-03-13T00:59:10;100122.13;;;8.97;100.00
67457;BME280;54319;52.038;4.640;2023-03-13T01:01:38;100101.13;;;9.04;100.00
67457;BME280;54319;52.038;4.640;2023-03-13T01:04:11;100094.88;;;9.04;100.00
67457;BME280;54319;52.038;4.640;2023-03-13T01:06:39;100084.38;;;9.07;100.00
67457;BME280;54319;52.038;4.640;2023-03-13T01:09:08;100083.94;;;9.10;100.00
67457;BME280;54319;52.038;4.640;2023-03-13T01:11:37;100076.78;;;9.16;100.00
67457;BME280;54319;52.038;4.640;2023-03-13T01:14:07;100057.34;;;9.12;100.00
67457;BME280;54319;52.038;4.640;2023-03-13T01:16:35;100064.00;;;9.17;100.00
67457;BME280;54319;52.038;4.640;2023-03-13T01:19:05;100063.72;;;9.25;100.00
67457;BME280;54319;52.038;4.640;2023-03-13T01:21:33;100047.16;;;9.26;100.00
67457;BME280;54319;52.038;4.640;2023-03-13T01:23:59;100045.88;;;9.29;100.00
67457;BME280;54319;52.038;4.640;2023-03-13T01:26:26;100043.31;;;9.34;100.00
67457;BME280;54319;52.038;4.640;2023-03-13T01:28:53;100019.41;;;9.18;100.00
67457;BME280;54319;52.038;4.640;2023-03-13T01:31:21;100040.75;;;9.39;100.00
67457;BME280;54319;52.038;4.640;2023-03-13T01:33:50;100034.50;;;9.39;100.00
67457;BME280;54319;52.038;4.640;2023-03-13T01:36:18;100024.56;;;9.45;100.00
67457;BME280;54319;52.038;4.640;2023-03-13T01:38:47;100022.09;;;9.43;100.00
67457;BME280;54319;52.038;4.640;2023-03-13T01:41:14;100009.47;;;9.49;100.00
67457;BME280;54319;52.038;4.640;2023-03-13T01:43:42;99995.63;;;9.50;100.00
67457;BME280;54319;52.038;4.640;2023-03-13T01:46:18;100010.59;;;9.60;100.00
67457;BME280;54319;52.038;4.640;2023-03-13T01:48:50;100003.50;;;9.59;100.00
67457;BME280;54319;52.038;4.640;2023-03-13T01:51:23;99983.47;;;9.53;100.00
67457;BME280;54319;52.038;4.640;2023-03-13T01:53:56;99975.16;;;9.48;100.00
67457;BME280;54319;52.038;4.640;2023-03-13T01:56:31;99969.63;;;9.54;100.00
67457;BME280;54319;52.038;4.640;2023-03-13T01:58:59;99975.00;;;9.61;100.00
67457;BME280;54319;52.038;4.640;2023-03-13T02:01:26;99960.53;;;9.61;100.00
67457;BME280;54319;52.038;4.640;2023-03-13T02:03:53;99954.41;;;9.65;100.00
67457;BME280;54319;52.038;4.640;2023-03-13T02:06:24;99953.34;;;9.66;100.00
67457;BME280;54319;52.038;4.640;2023-03-13T02:08:55;99955.41;;;9.71;100.00
67457;BME280;54319;52.038;4.640;2023-03-13T02:11:29;99941.00;;;9.64;100.00
67457;BME280;54319;52.038;4.640;2023-03-13T02:13:58;99945.47;;;9.77;100.00
67457;BME280;54319;52.038;4.640;2023-03-13T02:16:26;99924.66;;;9.82;100.00
67457;BME280;54319;52.038;4.640;2023-03-13T02:18:53;99932.44;;;9.79;100.00
67457;BME280;54319;52.038;4.640;2023-03-13T02:21:32;99921.19;;;9.75;100.00
67457;BME280;54319;52.038;4.640;2023-03-13T02:24:09;99916.69;;;9.81;100.00
67457;BME280;54319;52.038;4.640;2023-03-13T02:26:40;99924.59;;;9.89;100.00
67457;BME280;54319;52.038;4.640;2023-03-13T02:29:07;99921.09;;;9.82;100.00
67457;BME280;54319;52.038;4.640;2023-03-13T02:31:42;99928.63;;;9.98;100.00
67457;BME280;54319;52.038;4.640;2023-03-13T02:34:11;99916.44;;;10.01;100.00
67457;BME280;54319;52.038;4.640;2023-03-13T02:36:40;99912.19;;;10.05;100.00
67457;BME280;54319;52.038;4.640;2023-03-13T02:39:08;99923.44;;;10.09;100.00
67457;BME280;54319;52.038;4.640;2023-03-13T02:41:37;99903.06;;;9.99;100.00
67457;BME280;54319;52.038;4.640;2023-03-13T02:44:06;99931.06;;;10.19;100.00
67457;BME280;54319;52.038;4.640;2023-03-13T02:46:43;99921.84;;;10.20;100.00
67457;BME280;54319;52.038;4.640;2023-03-13T02:49:19;99938.09;;;10.26;100.00
67457;BME280;54319;52.038;4.640;2023-03-13T02:51:46;99895.88;;;10.17;100.00
67457;BME280;54319;52.038;4.640;2023-03-13T02:54:16;99933.38;;;10.34;100.00
67457;BME280;54319;52.038;4.640;2023-03-13T02:56:45;99919.88;;;10.39;100.00
67457;BME280;54319;52.038;4.640;2023-03-13T02:59:14;99930.47;;;10.47;100.00
67457;BME280;54319;52.038;4.640;2023-03-13T03:01:41;99903.19;;;10.47;100.00
67457;BME280;54319;52.038;4.640;2023-03-13T03:04:07;99904.97;;;10.53;100.00
67457;BME280;54319;52.038;4.640;2023-03-13T03:06:34;99895.63;;;10.61;100.00
67457;BME280;54319;52.038;4.640;2023-03-13T03:09:01;99884.94;;;10.60;100.00
67457;BME280;54319;52.038;4.640;2023-03-13T03:11:28;99896.34;;;10.68;100.00
67457;BME280;54319;52.038;4.640;2023-03-13T03:13:55;99879.88;;;10.75;100.00
67457;BME280;54319;52.038;4.640;2023-03-13T03:16:23;99883.56;;;10.81;100.00
67457;BME280;54319;52.038;4.640;2023-03-13T03:18:50;99874.63;;;10.85;99.93
67457;BME280;54319;52.038;4.640;2023-03-13T03:21:16;99876.06;;;10.88;99.88
67457;BME280;54319;52.038;4.640;2023-03-13T03:23:43;99838.84;;;10.70;99.75
67457;BME280;54319;52.038;4.640;2023-03-13T03:26:09;99882.13;;;10.90;99.95
67457;BME280;54319;52.038;4.640;2023-03-13T03:28:36;99866.06;;;10.94;99.21
67457;BME280;54319;52.038;4.640;2023-03-13T03:31:04;99854.47;;;10.86;99.24
67457;BME280;54319;52.038;4.640;2023-03-13T03:33:32;99874.63;;;10.97;99.55
67457;BME280;54319;52.038;4.640;2023-03-13T03:35:59;99870.13;;;11.03;99.77
67457;BME280;54319;52.038;4.640;2023-03-13T03:38:26;99877.00;;;11.06;99.64
67457;BME280;54319;52.038;4.640;2023-03-13T03:40:53;99856.00;;;11.06;99.61
67457;BME280;54319;52.038;4.640;2023-03-13T03:43:19;99867.72;;;11.07;99.79
67457;BME280;54319;52.038;4.640;2023-03-13T03:45:46;99858.13;;;11.04;99.98
67457;BME280;54319;52.038;4.640;2023-03-13T03:48:12;99850.53;;;11.06;99.93
67457;BME280;54319;52.038;4.640;2023-03-13T03:50:40;99844.00;;;11.07;100.00
67457;BME280;54319;52.038;4.640;2023-03-13T03:53:08;99848.88;;;11.05;100.00
67457;BME280;54319;52.038;4.640;2023-03-13T03:55:35;99842.94;;;10.96;100.00
67457;BME280;54319;52.038;4.640;2023-03-13T03:58:02;99840.59;;;11.00;100.00
67457;BME280;54319;52.038;4.640;2023-03-13T04:00:28;99842.94;;;11.08;100.00
67457;BME280;54319;52.038;4.640;2023-03-13T04:02:55;99809.28;;;10.79;100.00
67457;BME280;54319;52.038;4.640;2023-03-13T04:05:22;99843.75;;;11.09;100.00
67457;BME280;54319;52.038;4.640;2023-03-13T04:07:50;99843.66;;;11.04;100.00
67457;BME280;54319;52.038;4.640;2023-03-13T04:10:16;99829.44;;;10.90;100.00
67457;BME280;54319;52.038;4.640;2023-03-13T04:12:43;99844.63;;;10.97;100.00
67457;BME280;54319;52.038;4.640;2023-03-13T04:15:10;99839.63;;;10.94;100.00
67457;BME280;54319;52.038;4.640;2023-03-13T04:17:37;99838.78;;;10.94;100.00
67457;BME280;54319;52.038;4.640;2023-03-13T04:20:05;99833.34;;;10.94;100.00
67457;BME280;54319;52.038;4.640;2023-03-13T04:22:32;99833.59;;;10.92;100.00
67457;BME280;54319;52.038;4.640;2023-03-13T04:25:00;99809.03;;;10.80;100.00
67457;BME280;54319;52.038;4.640;2023-03-13T04:27:27;99813.06;;;10.90;100.00
67457;BME280;54319;52.038;4.640;2023-03-13T04:29:54;99823.97;;;10.90;100.00
67457;BME280;54319;52.038;4.640;2023-03-13T04:32:20;99795.09;;;10.65;100.00
67457;BME280;54319;52.038;4.640;2023-03-13T04:34:47;99830.97;;;10.85;100.00
67457;BME280;54319;52.038;4.640;2023-03-13T04:37:14;99828.72;;;10.94;100.00
67457;BME280;54319;52.038;4.640;2023-03-13T04:39:40;99796.59;;;10.84;100.00
67457;BME280;54319;52.038;4.640;2023-03-13T04:42:09;99830.13;;;10.97;100.00
67457;BME280;54319;52.038;4.640;2023-03-13T04:44:36;99822.31;;;11.00;100.00
67457;BME280;54319;52.038;4.640;2023-03-13T04:47:03;99820.88;;;10.98;100.00
67457;BME280;54319;52.038;4.640;2023-03-13T04:49:30;99801.34;;;10.89;100.00
67457;BME280;54319;52.038;4.640;2023-03-13T04:51:58;99797.03;;;11.05;100.00
67457;BME280;54319;52.038;4.640;2023-03-13T04:54:25;99804.47;;;11.10;100.00
67457;BME280;54319;52.038;4.640;2023-03-13T04:56:51;99798.88;;;11.17;100.00
67457;BME280;54319;52.038;4.640;2023-03-13T04:59:19;99749.69;;;10.99;99.61
67457;BME280;54319;52.038;4.640;2023-03-13T05:01:46;99785.81;;;11.19;99.32
67457;BME280;54319;52.038;4.640;2023-03-13T05:04:12;99762.31;;;11.18;98.24
67457;BME280;54319;52.038;4.640;2023-03-13T05:06:39;99781.72;;;11.33;97.04
67457;BME280;54319;52.038;4.640;2023-03-13T05:09:06;99795.97;;;11.35;96.42
67457;BME280;54319;52.038;4.640;2023-03-13T05:11:33;99769.38;;;11.42;95.49
67457;BME280;54319;52.038;4.640;2023-03-13T05:13:59;99764.00;;;11.48;94.75
67457;BME280;54319;52.038;4.640;2023-03-13T05:16:27;99764.09;;;11.53;94.24
67457;BME280;54319;52.038;4.640;2023-03-13T05:18:54;99757.91;;;11.57;93.66
67457;BME280;54319;52.038;4.640;2023-03-13T05:21:20;99743.66;;;11.55;93.51
67457;BME280;54319;52.038;4.640;2023-03-13T05:23:47;99733.53;;;11.56;93.37
67457;BME280;54319;52.038;4.640;2023-03-13T05:26:13;99750.28;;;11.60;92.94
67457;BME280;54319;52.038;4.640;2023-03-13T05:28:40;99732.47;;;11.57;92.97
67457;BME280;54319;52.038;4.640;2023-03-13T05:31:07;99744.81;;;11.60;92.73
67457;BME280;54319;52.038;4.640;2023-03-13T05:33:35;99747.63;;;11.65;91.77
67457;BME280;54319;52.038;4.640;2023-03-13T05:36:01;99724.34;;;11.62;91.73
67457;BME280;54319;52.038;4.640;2023-03-13T05:38:28;99738.09;;;11.67;90.55
67457;BME280;54319;52.038;4.640;2023-03-13T05:40:54;99732.13;;;11.70;90.50
67457;BME280;54319;52.038;4.640;2023-03-13T05:43:22;99743.06;;;11.70;90.14
67457;BME280;54319;52.038;4.640;2023-03-13T05:45:49;99718.75;;;11.69;90.11
67457;BME280;54319;52.038;4.640;2023-03-13T05:48:15;99715.84;;;11.76;88.81
67457;BME280;54319;52.038;4.640;2023-03-13T05:50:43;99718.97;;;11.84;88.42
67457;BME280;54319;52.038;4.640;2023-03-13T05:53:11;99715.75;;;11.70;88.39
67457;BME280;54319;52.038;4.640;2023-03-13T05:55:38;99710.47;;;11.81;88.21
67457;BME280;54319;52.038;4.640;2023-03-13T05:58:04;99710.72;;;11.79;88.31
67457;BME280;54319;52.038;4.640;2023-03-13T06:00:31;99713.59;;;11.72;88.18
67457;BME280;54319;52.038;4.640;2023-03-13T06:02:58;99719.56;;;11.69;88.59
67457;BME280;54319;52.038;4.640;2023-03-13T06:05:24;99736.63;;;11.77;88.37
67457;BME280;54319;52.038;4.640;2023-03-13T06:07:52;99720.31;;;11.82;88.23
67457;BME280;54319;52.038;4.640;2023-03-13T06:10:19;99720.91;;;11.84;88.08
67457;BME280;54319;52.038;4.640;2023-03-13T06:12:51;99732.50;;;11.91;87.90
67457;BME280;54319;52.038;4.640;2023-03-13T06:15:18;99728.84;;;11.85;87.73
67457;BME280;54319;52.038;4.640;2023-03-13T06:17:46;99738.97;;;11.85;87.90
67457;BME280;54319;52.038;4.640;2023-03-13T06:20:12;99720.13;;;11.88;87.96
67457;BME280;54319;52.038;4.640;2023-03-13T06:22:39;99735.81;;;11.93;88.57
67457;BME280;54319;52.038;4.640;2023-03-13T06:25:08;99740.84;;;11.84;89.47
67457;BME280;54319;52.038;4.640;2023-03-13T06:27:35;99740.44;;;11.76;90.74
67457;BME280;54319;52.038;4.640;2023-03-13T06:30:03;99736.94;;;11.63;91.71
67457;BME280;54319;52.038;4.640;2023-03-13T06:32:29;99744.56;;;11.61;92.37
67457;BME280;54319;52.038;4.640;2023-03-13T06:34:56;99742.22;;;11.53;93.12
67457;BME280;54319;52.038;4.640;2023-03-13T06:37:23;99759.13;;;11.50;93.66
67457;BME280;54319;52.038;4.640;2023-03-13T06:39:49;99744.69;;;11.37;94.70
67457;BME280;54319;52.038;4.640;2023-03-13T06:42:17;99740.69;;;11.28;95.76
67457;BME280;54319;52.038;4.640;2023-03-13T06:44:44;99752.34;;;11.23;96.36
67457;BME280;54319;52.038;4.640;2023-03-13T06:47:11;99732.22;;;11.12;97.47
67457;BME280;54319;52.038;4.640;2023-03-13T06:49:37;99721.72;;;10.92;97.78
67457;BME280;54319;52.038;4.640;2023-03-13T06:52:04;99750.38;;;11.07;98.13
67457;BME280;54319;52.038;4.640;2023-03-13T06:54:31;99694.50;;;10.68;98.58
67457;BME280;54319;52.038;4.640;2023-03-13T06:56:58;99751.00;;;10.97;98.68
67457;BME280;54319;52.038;4.640;2023-03-13T06:59:26;99742.56;;;10.98;98.99
67457;BME280;54319;52.038;4.640;2023-03-13T07:01:52;99740.69;;;10.99;98.68
67457;BME280;54319;52.038;4.640;2023-03-13T07:04:19;99732.50;;;10.99;98.75
67457;BME280;54319;52.038;4.640;2023-03-13T07:06:46;99752.06;;;10.96;98.48
67457;BME280;54319;52.038;4.640;2023-03-13T07:09:13;99739.22;;;11.08;98.29
67457;BME280;54319;52.038;4.640;2023-03-13T07:11:41;99731.31;;;10.95;98.56
67457;BME280;54319;52.038;4.640;2023-03-13T07:14:07;99731.31;;;10.95;98.40
67457;BME280;54319;52.038;4.640;2023-03-13T07:16:35;99728.22;;;11.03;98.41
67457;BME280;54319;52.038;4.640;2023-03-13T07:19:02;99732.69;;;11.09;98.60
67457;BME280;54319;52.038;4.640;2023-03-13T07:21:28;99733.78;;;11.08;98.64
67457;BME280;54319;52.038;4.640;2023-03-13T07:23:56;99707.94;;;10.99;98.56
67457;BME280;54319;52.038;4.640;2023-03-13T07:26:23;99734.47;;;11.04;98.78
67457;BME280;54319;52.038;4.640;2023-03-13T07:28:49;99753.34;;;11.05;98.79
67457;BME280;54319;52.038;4.640;2023-03-13T07:31:17;99744.34;;;11.05;98.70
67457;BME280;54319;52.038;4.640;2023-03-13T07:33:46;99694.97;;;10.77;98.91
67457;BME280;54319;52.038;4.640;2023-03-13T07:36:14;99745.00;;;11.12;98.48
67457;BME280;54319;52.038;4.640;2023-03-13T07:38:41;99760.19;;;11.20;97.80
67457;BME280;54319;52.038;4.640;2023-03-13T07:41:10;99726.13;;;11.22;97.01
67457;BME280;54319;52.038;4.640;2023-03-13T07:43:37;99738.75;;;11.40;96.60
67457;BME280;54319;52.038;4.640;2023-03-13T07:46:04;99740.88;;;11.38;96.34
67457;BME280;54319;52.038;4.640;2023-03-13T07:48:33;99744.69;;;11.54;95.70
67457;BME280;54319;52.038;4.640;2023-03-13T07:51:02;99728.16;;;11.61;95.49
67457;BME280;54319;52.038;4.640;2023-03-13T07:53:29;99714.09;;;11.69;94.58
67457;BME280;54319;52.038;4.640;2023-03-13T07:55:58;99710.78;;;11.67;94.06
67457;BME280;54319;52.038;4.640;2023-03-13T07:58:28;99717.84;;;11.80;93.92
67457;BME280;54319;52.038;4.640;2023-03-13T08:00:55;99729.41;;;11.87;93.43
67457;BME280;54319;52.038;4.640;2023-03-13T08:03:22;99727.94;;;11.97;92.30
67457;BME280;54319;52.038;4.640;2023-03-13T08:05:56;99730.03;;;12.07;91.71
67457;BME280;54319;52.038;4.640;2023-03-13T08:08:24;99713.22;;;12.15;91.72
67457;BME280;54319;52.038;4.640;2023-03-13T08:10:51;99723.22;;;12.26;91.58
67457;BME280;54319;52.038;4.640;2023-03-13T08:13:19;99704.72;;;12.34;91.36
67457;BME280;54319;52.038;4.640;2023-03-13T08:15:45;99717.19;;;12.24;91.09
67457;BME280;54319;52.038;4.640;2023-03-13T08:18:12;99708.31;;;12.17;91.79
67457;BME280;54319;52.038;4.640;2023-03-13T08:20:38;99725.06;;;12.04;91.93
67457;BME280;54319;52.038;4.640;2023-03-13T08:23:05;99715.66;;;11.99;92.73
67457;BME280;54319;52.038;4.640;2023-03-13T08:25:33;99690.44;;;11.92;92.27
67457;BME280;54319;52.038;4.640;2023-03-13T08:27:59;99719.75;;;11.97;91.84
67457;BME280;54319;52.038;4.640;2023-03-13T08:30:26;99693.22;;;11.97;91.11
67457;BME280;54319;52.038;4.640;2023-03-13T08:32:53;99695.31;;;12.07;90.31
67457;BME280;54319;52.038;4.640;2023-03-13T08:35:19;99701.72;;;12.13;89.49
67457;BME280;54319;52.038;4.640;2023-03-13T08:37:46;99714.59;;;12.18;89.41
67457;BME280;54319;52.038;4.640;2023-03-13T08:40:13;99711.19;;;12.27;88.74
67457;BME280;54319;52.038;4.640;2023-03-13T08:42:41;99691.06;;;12.34;87.41
67457;BME280;54319;52.038;4.640;2023-03-13T08:45:08;99687.94;;;12.47;86.67
67457;BME280;54319;52.038;4.640;2023-03-13T08:47:34;99683.25;;;12.65;85.14
67457;BME280;54319;52.038;4.640;2023-03-13T08:50:01;99685.03;;;12.76;85.87
67457;BME280;54319;52.038;4.640;2023-03-13T08:52:28;99690.69;;;12.92;84.98
67457;BME280;54319;52.038;4.640;2023-03-13T08:54:55;99714.25;;;12.93;83.13
67457;BME280;54319;52.038;4.640;2023-03-13T08:57:21;99667.06;;;13.08;83.30
67457;BME280;54319;52.038;4.640;2023-03-13T08:59:51;99692.25;;;13.10;82.71
67457;BME280;54319;52.038;4.640;2023-03-13T09:02:17;99704.91;;;13.16;82.26
67457;BME280;54319;52.038;4.640;2023-03-13T09:04:45;99657.53;;;13.15;81.33
67457;BME280;54319;52.038;4.640;2023-03-13T09:07:13;99677.47;;;13.11;80.72
67457;BME280;54319;52.038;4.640;2023-03-13T09:09:39;99664.34;;;13.13;80.64
67457;BME280;54319;52.038;4.640;2023-03-13T09:12:07;99641.66;;;13.17;80.41
67457;BME280;54319;52.038;4.640;2023-03-13T09:14:34;99660.97;;;13.06;79.99
67457;BME280;54319;52.038;4.640;2023-03-13T09:17:02;99661.16;;;13.21;79.71
67457;BME280;54319;52.038;4.640;2023-03-13T09:19:29;99655.63;;;13.16;79.83
67457;BME280;54319;52.038;4.640;2023-03-13T09:21:55;99642.69;;;13.11;80.63
67457;BME280;54319;52.038;4.640;2023-03-13T09:24:22;99631.38;;;13.30;79.82
67457;BME280;54319;52.038;4.640;2023-03-13T09:26:48;99653.97;;;13.42;79.28
67457;BME280;54319;52.038;4.640;2023-03-13T09:29:15;99643.69;;;13.60;78.11
67457;BME280;54319;52.038;4.640;2023-03-13T09:31:42;99648.72;;;13.68;79.01
67457;BME280;54319;52.038;4.640;2023-03-13T09:34:11;99604.44;;;13.92;77.75
67457;BME280;54319;52.038;4.640;2023-03-13T09:36:38;99602.56;;;13.98;77.35
67457;BME280;54319;52.038;4.640;2023-03-13T09:39:05;99600.03;;;13.86;77.24
67457;BME280;54319;52.038;4.640;2023-03-13T09:41:35;99600.56;;;13.83;76.94
67457;BME280;54319;52.038;4.640;2023-03-13T09:44:08;99628.41;;;14.07;77.57
67457;BME280;54319;52.038;4.640;2023-03-13T09:46:40;99584.75;;;14.00;76.01
67457;BME280;54319;52.038;4.640;2023-03-13T09:49:23;99593.31;;;14.09;75.28
67457;BME280;54319;52.038;4.640;2023-03-13T09:51:57;99597.13;;;14.08;75.29
67457;BME280;54319;52.038;4.640;2023-03-13T09:54:30;99590.03;;;14.12;75.45
67457;BME280;54319;52.038;4.640;2023-03-13T09:57:04;99569.53;;;14.30;76.36
67457;BME280;54319;52.038;4.640;2023-03-13T09:59:36;99583.31;;;14.41;74.09
67457;BME280;54319;52.038;4.640;2023-03-13T10:02:19;99572.28;;;14.36;74.07
67457;BME280;54319;52.038;4.640;2023-03-13T10:04:51;99585.84;;;14.68;73.42
67457;BME280;54319;52.038;4.640;2023-03-13T10:07:18;99572.19;;;14.79;71.98
67457;BME280;54319;52.038;4.640;2023-03-13T10:09:46;99570.28;;;15.00;72.50
67457;BME280;54319;52.038;4.640;2023-03-13T10:12:16;99562.03;;;14.89;71.48
67457;BME280;54319;52.038;4.640;2023-03-13T10:14:53;99594.16;;;14.84;71.38
67457;BME280;54319;52.038;4.640;2023-03-13T10:17:30;99575.22;;;14.82;72.68
67457;BME280;54319;52.038;4.640;2023-03-13T10:20:02;99577.97;;;14.98;70.52
67457;BME280;54319;52.038;4.640;2023-03-13T10:22:37;99569.19;;;14.80;69.59
67457;BME280;54319;52.038;4.640;2023-03-13T10:25:08;99584.50;;;14.76;70.37
67457;BME280;54319;52.038;4.640;2023-03-13T10:27:44;99576.28;;;14.76;70.03
67457;BME280;54319;52.038;4.640;2023-03-13T10:30:21;99571.03;;;14.69;70.44
67457;BME280;54319;52.038;4.640;2023-03-13T10:32:49;99589.13;;;14.60;70.48
67457;BME280;54319;52.038;4.640;2023-03-13T10:35:21;99576.78;;;14.62;69.88
67457;BME280;54319;52.038;4.640;2023-03-13T10:37:49;99571.25;;;14.52;70.64
67457;BME280;54319;52.038;4.640;2023-03-13T10:40:26;99575.97;;;14.67;69.59
67457;BME280;54319;52.038;4.640;2023-03-13T10:43:00;99575.97;;;14.67;69.43
67457;BME280;54319;52.038;4.640;2023-03-13T10:45:31;99565.00;;;14.67;69.19
67457;BME280;54319;52.038;4.640;2023-03-13T10:48:00;99572.19;;;14.89;69.33
67457;BME280;54319;52.038;4.640;2023-03-13T10:50:32;99566.16;;;14.87;68.57
67457;BME280;54319;52.038;4.640;2023-03-13T10:53:09;99573.56;;;14.97;66.79
67457;BME280;54319;52.038;4.640;2023-03-13T10:55:45;99559.28;;;15.10;67.66
67457;BME280;54319;52.038;4.640;2023-03-13T10:58:17;99538.69;;;15.23;67.06
67457;BME280;54319;52.038;4.640;2023-03-13T11:00:46;99556.28;;;15.27;65.48
67457;BME280;54319;52.038;4.640;2023-03-13T11:03:15;99568.63;;;15.14;64.74
67457;BME280;54319;52.038;4.640;2023-03-13T11:05:53;99571.66;;;15.13;65.24
67457;BME280;54319;52.038;4.640;2023-03-13T11:08:22;99548.31;;;15.00;63.77
67457;BME280;54319;52.038;4.640;2023-03-13T11:10:55;99574.13;;;15.04;63.34
67457;BME280;54319;52.038;4.640;2023-03-13T11:13:33;99596.66;;;15.01;63.30
67457;BME280;54319;52.038;4.640;2023-03-13T11:19:09;99554.34;;;14.92;63.92
67457;BME280;54319;52.038;4.640;2023-03-13T11:21:49;99566.16;;;14.87;64.06
67457;BME280;54319;52.038;4.640;2023-03-13T11:24:27;99576.31;;;14.81;64.84
67457;BME280;54319;52.038;4.640;2023-03-13T11:27:05;99587.84;;;14.78;63.97
67457;BME280;54319;52.038;4.640;2023-03-13T11:29:40;99609.47;;;14.69;62.17
67457;BME280;54319;52.038;4.640;2023-03-13T11:32:19;99556.78;;;14.72;62.12
67457;BME280;54319;52.038;4.640;2023-03-13T11:34:50;99591.69;;;14.87;60.89
67457;BME280;54319;52.038;4.640;2023-03-13T11:37:21;99597.75;;;15.05;60.24
67457;BME280;54319;52.038;4.640;2023-03-13T11:40:02;99561.75;;;14.91;59.53
67457;BME280;54319;52.038;4.640;2023-03-13T11:42:44;99577.16;;;15.23;59.17
67457;BME280;54319;52.038;4.640;2023-03-13T11:45:29;99556.00;;;15.39;59.17
67457;BME280;54319;52.038;4.640;2023-03-13T11:48:03;99547.50;;;15.36;58.57
67457;BME280;54319;52.038;4.640;2023-03-13T11:50:36;99552.41;;;15.33;59.15
67457;BME280;54319;52.038;4.640;2023-03-13T11:53:35;99544.97;;;15.49;58.29
67457;BME280;54319;52.038;4.640;2023-03-13T11:56:08;99554.09;;;15.34;58.79
67457;BME280;54319;52.038;4.640;2023-03-13T11:58:58;99518.66;;;15.02;59.14
67457;BME280;54319;52.038;4.640;2023-03-13T12:01:33;99530.19;;;15.35;59.71
67457;BME280;54319;52.038;4.640;2023-03-13T12:04:04;99549.97;;;15.22;59.00
67457;BME280;54319;52.038;4.640;2023-03-13T12:06:36;99542.28;;;15.08;60.24
67457;BME280;54319;52.038;4.640;2023-03-13T12:09:10;99532.66;;;15.16;60.13
67457;BME280;54319;52.038;4.640;2023-03-13T12:11:42;99533.50;;;15.16;60.16
67457;BME280;54319;52.038;4.640;2023-03-13T12:14:12;99557.09;;;14.86;61.35
67457;BME280;54319;52.038;4.640;2023-03-13T12:16:43;99540.59;;;14.76;62.47
67457;BME280;54319;52.038;4.640;2023-03-13T12:19:14;99531.28;;;14.87;61.84
67457;BME280;54319;52.038;4.640;2023-03-13T12:21:46;99527.72;;;15.13;61.91
67457;BME280;54319;52.038;4.640;2023-03-13T12:24:22;99553.25;;;15.03;62.18
67457;BME280;54319;52.038;4.640;2023-03-13T12:26:54;99525.78;;;15.08;61.87
67457;BME280;54319;52.038;4.640;2023-03-13T12:29:29;99546.94;;;15.28;61.46
67457;BME280;54319;52.038;4.640;2023-03-13T12:32:03;99543.66;;;15.05;60.79
67457;BME280;54319;52.038;4.640;2023-03-13T12:34:37;99534.06;;;15.18;60.92
67457;BME280;54319;52.038;4.640;2023-03-13T12:37:11;99535.97;;;15.39;60.44
67457;BME280;54319;52.038;4.640;2023-03-13T12:39:49;99537.34;;;15.21;61.30
67457;BME280;54319;52.038;4.640;2023-03-13T12:42:35;99535.69;;;15.19;61.00
67457;BME280;54319;52.038;4.640;2023-03-13T12:45:04;99518.41;;;15.03;62.02
67457;BME280;54319;52.038;4.640;2023-03-13T12:47:33;99522.50;;;14.90;62.45
67457;BME280;54319;52.038;4.640;2023-03-13T12:50:11;99525.25;;;14.90;61.52
67457;BME280;54319;52.038;4.640;2023-03-13T12:53:06;99520.84;;;15.05;61.67
67457;BME280;54319;52.038;4.640;2023-03-13T12:58:41;99525.78;;;15.34;59.44
67457;BME280;54319;52.038;4.640;2023-03-13T13:01:16;99522.50;;;15.32;59.67
67457;BME280;54319;52.038;4.640;2023-03-13T13:03:51;99543.38;;;15.28;59.18
67457;BME280;54319;52.038;4.640;2023-03-13T13:06:19;99503.28;;;15.22;59.07
67457;BME280;54319;52.038;4.640;2023-03-13T13:08:48;99529.38;;;15.34;58.13
67457;BME280;54319;52.038;4.640;2023-03-13T13:11:49;99508.78;;;15.16;57.58
67457;BME280;54319;52.038;4.640;2023-03-13T13:17:22;99515.34;;;15.26;57.40